createdAt,value
2024-01-05T00:09:51.958Z,27.67
2024-01-05T00:25:18.072Z,27.60
2024-01-05T00:40:43.025Z,27.42
2024-01-05T00:56:08.051Z,27.45
2024-01-05T01:11:32.993Z,27.35
2024-01-05T01:26:57.944Z,27.16
2024-01-05T01:42:23.028Z,27.14
2024-01-05T01:57:47.927Z,27.02
2024-01-05T02:13:12.894Z,26.91
2024-01-05T02:28:37.919Z,27.02
2024-01-05T02:44:02.913Z,27.07
2024-01-05T02:59:27.917Z,27.24
2024-01-05T03:14:52.907Z,27.23
2024-01-05T03:30:17.969Z,27.97
2024-01-05T03:45:42.926Z,28.52
2024-01-05T04:01:07.920Z,28.93
2024-01-05T04:16:32.857Z,29.15
2024-01-05T04:31:57.827Z,29.36
2024-01-05T04:47:22.868Z,29.63
2024-01-05T05:02:47.886Z,29.90
2024-01-05T05:18:12.975Z,29.87
2024-01-05T05:33:37.948Z,30.14
2024-01-05T05:49:02.992Z,30.35
2024-01-05T06:04:27.910Z,30.80
2024-01-05T06:19:52.827Z,30.53
2024-01-05T06:35:17.804Z,30.77
2024-01-05T06:50:42.900Z,30.75
2024-01-05T07:06:07.789Z,30.95
2024-01-05T07:21:32.836Z,31.25
2024-01-05T07:36:57.789Z,30.89
2024-01-05T07:52:22.724Z,31.07
2024-01-05T08:07:47.780Z,31.50
2024-01-05T08:23:12.748Z,31.62
2024-01-05T08:38:37.672Z,31.75
2024-01-05T08:54:02.694Z,30.96
2024-01-05T09:09:27.753Z,30.96
2024-01-05T09:24:52.685Z,31.45
2024-01-05T09:40:17.659Z,31.83
2024-01-05T09:55:42.637Z,31.94
2024-01-05T10:11:07.595Z,31.78
2024-01-05T10:26:32.618Z,31.73
2024-01-05T10:41:57.648Z,30.84
2024-01-05T10:57:22.761Z,30.24
2024-01-05T11:12:47.660Z,30.23
2024-01-05T11:28:12.606Z,31.09
2024-01-05T11:43:37.580Z,30.42
2024-01-05T11:59:02.581Z,30.22
2024-01-05T12:14:27.534Z,30.07
2024-01-05T12:29:53.601Z,30.06
2024-01-05T12:45:18.551Z,29.92
2024-01-05T13:00:44.800Z,29.77
2024-01-05T13:16:09.584Z,29.40
2024-01-05T13:31:34.717Z,29.35
2024-01-05T13:46:59.590Z,29.37
2024-01-05T14:02:24.519Z,29.30
2024-01-05T14:17:49.537Z,29.06
2024-01-05T14:33:14.533Z,29.24
2024-01-05T14:48:39.702Z,29.00
2024-01-05T15:04:04.646Z,28.92
2024-01-05T15:19:29.608Z,28.96
2024-01-05T15:34:54.525Z,29.36
2024-01-05T15:50:19.493Z,29.75
2024-01-05T16:05:44.499Z,29.73
2024-01-05T16:21:09.445Z,29.89
2024-01-05T16:36:34.431Z,29.92
2024-01-05T16:51:59.465Z,29.98
2024-01-05T17:07:24.358Z,30.26
2024-01-05T17:22:49.406Z,29.55
2024-01-05T17:38:14.410Z,29.39
2024-01-05T17:53:39.450Z,29.38
2024-01-05T18:09:04.438Z,29.38
2024-01-05T18:24:29.592Z,29.51
2024-01-05T18:39:54.454Z,29.63
2024-01-05T18:55:19.344Z,29.85
2024-01-05T19:10:45.345Z,29.87
2024-01-05T19:26:10.350Z,29.97
2024-01-05T19:41:35.327Z,30.01
2024-01-05T19:57:00.340Z,30.38
2024-01-05T20:12:25.351Z,31.08
2024-01-05T20:27:50.413Z,31.87
2024-01-05T20:43:15.309Z,32.52
2024-01-05T20:58:42.424Z,32.88
2024-01-05T21:14:05.304Z,33.17
2024-01-05T21:29:31.252Z,33.45
2024-01-05T21:44:56.276Z,32.86
2024-01-05T22:00:21.281Z,31.91
2024-01-05T22:15:46.191Z,31.35
2024-01-05T22:31:11.376Z,30.95
2024-01-05T22:46:36.174Z,30.62
2024-01-05T23:02:01.280Z,30.32
2024-01-05T23:17:26.234Z,30.08
2024-01-05T23:32:51.209Z,29.86
2024-01-05T23:48:16.313Z,29.96
